EAX2W LELL-LELL

Flight info

Callsign EAX2W
Flight time N/A
Altitude 3000
Route SLL DCT XEPLA DCT SLL
Aircraft P92/L-SBDGRY/S

Departure

Time 2026-05-05 19:35
Airport Sabadell Airfield (LELL)

Arrival

Time N/A
Airport Sabadell Airfield (LELL)
Time Latitude Longitude Altitude Speed Heading
2026-05-05 19:26 41.52207 2.10745 474 ft 0 kts 36°
2026-05-05 19:28 41.52211 2.10749 474 ft 1 kts 50°
2026-05-05 19:29 41.52212 2.10761 474 ft 2 kts 117°
2026-05-05 19:29 41.52198 2.10762 474 ft 7 kts 202°
2026-05-05 19:29 41.52179 2.10735 474 ft 0 kts 313°
2026-05-05 19:29 41.52208 2.10685 472 ft 15 kts 300°
2026-05-05 19:30 41.52194 2.10643 471 ft 5 kts 171°
2026-05-05 19:30 41.52152 2.10709 471 ft 16 kts 125°
2026-05-05 19:30 41.52080 2.10839 471 ft 15 kts 127°
2026-05-05 19:30 41.52043 2.10869 471 ft 4 kts 212°
2026-05-05 19:31 41.52011 2.10852 471 ft 4 kts 128°
2026-05-05 19:31 41.51948 2.10966 471 ft 19 kts 127°
2026-05-05 19:31 41.51873 2.11096 471 ft 10 kts 150°
2026-05-05 19:31 41.51851 2.11102 470 ft 1 kts 193°
2026-05-05 19:32 41.51828 2.11096 470 ft 0 kts 191°
2026-05-05 19:33 41.51822 2.11094 470 ft 4 kts 195°
2026-05-05 19:33 41.51771 2.11061 467 ft 1 kts 285°
2026-05-05 19:33 41.51783 2.11040 467 ft 15 kts 307°
2026-05-05 19:33 41.51930 2.10781 470 ft 54 kts 307°
2026-05-05 19:34 41.52207 2.10291 498 ft 77 kts 307°
2026-05-05 19:34 41.52546 2.09704 615 ft 80 kts 309°
2026-05-05 19:34 41.52898 2.09149 783 ft 78 kts 314°
2026-05-05 19:35 41.53682 2.08079 1105 ft 84 kts 317°
2026-05-05 19:35 41.54191 2.07783 1355 ft 82 kts 342°
2026-05-05 19:35 41.54719 2.07559 1623 ft 77 kts 335°
2026-05-05 19:35 41.55229 2.07295 1764 ft 81 kts 341°
2026-05-05 19:36 41.55795 2.07417 1928 ft 86 kts 26°
2026-05-05 19:36 41.56247 2.07901 2134 ft 85 kts 48°
2026-05-05 19:36 41.56625 2.08534 2292 ft 87 kts 56°
2026-05-05 19:36 41.56943 2.09210 2508 ft 86 kts 62°
2026-05-05 19:37 41.57212 2.09913 2691 ft 85 kts 68°
2026-05-05 19:37 41.57445 2.10630 2868 ft 85 kts 73°
2026-05-05 19:37 41.57679 2.11388 2984 ft 89 kts 70°
2026-05-05 19:37 41.57877 2.12136 3153 ft 84 kts 73°
2026-05-05 19:38 41.58042 2.12888 3332 ft 85 kts 78°
2026-05-05 19:38 41.58194 2.13674 3455 ft 92 kts 77°
2026-05-05 19:38 41.58374 2.14515 3569 ft 97 kts 74°
2026-05-05 19:38 41.58548 2.15390 3624 ft 100 kts 78°
2026-05-05 19:39 41.58715 2.16325 3608 ft 106 kts 76°
2026-05-05 19:39 41.58911 2.17286 3563 ft 108 kts 74°
2026-05-05 19:39 41.59113 2.18183 3569 ft 100 kts 75°
2026-05-05 19:39 41.59293 2.19065 3571 ft 100 kts 78°
2026-05-05 19:40 41.59432 2.19984 3597 ft 100 kts 84°
2026-05-05 19:40 41.59509 2.20939 3535 ft 107 kts 88°
2026-05-05 19:40 41.59549 2.21941 3454 ft 110 kts 91°
2026-05-05 19:40 41.59537 2.22900 3448 ft 100 kts 95°
2026-05-05 19:41 41.59504 2.23823 3400 ft 98 kts 97°
2026-05-05 19:41 41.59458 2.24724 3338 ft 96 kts 98°
2026-05-05 19:41 41.59291 2.25558 3251 ft 94 kts 136°
2026-05-05 19:41 41.58708 2.25773 3185 ft 90 kts 196°
2026-05-05 19:42 41.58229 2.25407 3226 ft 77 kts 228°
2026-05-05 19:42 41.57936 2.24798 3155 ft 78 kts 242°
2026-05-05 19:42 41.57676 2.24165 3118 ft 78 kts 239°
2026-05-05 19:42 41.57378 2.23580 3101 ft 78 kts 233°
2026-05-05 19:43 41.57055 2.23028 3105 ft 74 kts 232°